createdAt,value
2022-12-13T00:00:19.323Z,18.42
2022-12-13T00:02:36.889Z,18.85
2022-12-13T00:04:54.279Z,18.25
2022-12-13T00:07:11.291Z,18.95
2022-12-13T00:09:28.317Z,20.92
2022-12-13T00:11:45.263Z,20.42
2022-12-13T00:14:03.378Z,20.02
2022-12-13T00:16:20.767Z,19.83
2022-12-13T00:18:38.254Z,20.98
2022-12-13T00:20:55.564Z,21.13
2022-12-13T00:23:12.973Z,19.13
2022-12-13T00:25:29.974Z,20.00
2022-12-13T00:27:47.117Z,20.27
2022-12-13T00:30:04.218Z,21.17
2022-12-13T00:32:21.440Z,21.85
2022-12-13T00:34:38.933Z,22.02
2022-12-13T00:36:56.266Z,22.17
2022-12-13T00:39:13.544Z,22.58
2022-12-13T00:41:30.494Z,21.70
2022-12-13T00:43:48.056Z,22.55
2022-12-13T00:46:06.160Z,23.25
2022-12-13T00:48:23.632Z,22.63
2022-12-13T00:50:40.698Z,23.52
2022-12-13T00:52:58.038Z,24.17
2022-12-13T00:55:15.805Z,22.90
2022-12-13T00:57:33.519Z,24.55
2022-12-13T00:59:50.921Z,22.55
2022-12-13T01:02:08.255Z,23.52
2022-12-13T01:04:26.327Z,23.55
2022-12-13T01:06:43.374Z,24.50
2022-12-13T01:09:00.469Z,23.88
2022-12-13T01:11:17.823Z,24.15
2022-12-13T01:13:35.273Z,24.60
2022-12-13T01:15:52.217Z,23.52
2022-12-13T01:18:09.514Z,24.25
2022-12-13T01:20:27.395Z,23.13
2022-12-13T01:22:44.352Z,24.77
2022-12-13T01:25:01.627Z,24.05
2022-12-13T01:27:18.761Z,24.63
2022-12-13T01:29:35.877Z,25.65
2022-12-13T01:31:53.039Z,25.10
2022-12-13T01:34:09.947Z,23.48
2022-12-13T01:36:28.207Z,23.10
2022-12-13T01:38:45.698Z,23.98
2022-12-13T01:41:02.921Z,23.50
2022-12-13T01:43:34.289Z,22.55
2022-12-13T01:45:51.246Z,22.92
2022-12-13T01:48:08.238Z,23.25
2022-12-13T01:50:25.176Z,24.15
2022-12-13T01:52:42.291Z,22.35
2022-12-13T01:55:14.982Z,22.95
2022-12-13T01:57:32.058Z,22.83
2022-12-13T01:59:49.067Z,22.70
2022-12-13T02:02:06.956Z,23.30
2022-12-13T02:04:24.739Z,22.90
2022-12-13T02:06:41.704Z,22.23
2022-12-13T02:08:58.659Z,22.15
2022-12-13T02:11:15.701Z,22.30
2022-12-13T02:13:32.685Z,23.33
2022-12-13T02:15:49.621Z,22.75
2022-12-13T02:18:06.972Z,22.35
2022-12-13T02:20:23.907Z,22.42
2022-12-13T02:22:41.005Z,23.60
2022-12-13T02:24:58.198Z,23.65
2022-12-13T02:27:16.199Z,23.45
2022-12-13T02:29:47.767Z,21.98
2022-12-13T02:32:04.881Z,22.25
2022-12-13T02:34:21.913Z,23.20
2022-12-13T02:36:38.911Z,22.90
2022-12-13T02:38:56.994Z,21.48
2022-12-13T02:41:13.949Z,23.13
2022-12-13T02:43:33.399Z,22.10
2022-12-13T02:45:50.893Z,23.00
2022-12-13T02:48:08.146Z,23.10
2022-12-13T02:50:25.125Z,22.15
2022-12-13T02:52:42.168Z,22.73
2022-12-13T02:54:59.207Z,22.05
2022-12-13T02:57:16.273Z,22.30
2022-12-13T02:59:39.102Z,22.50
2022-12-13T03:02:09.483Z,21.30
2022-12-13T03:04:27.565Z,21.17
2022-12-13T03:06:44.866Z,22.02
2022-12-13T03:09:02.125Z,22.33
2022-12-13T03:11:19.028Z,21.58
2022-12-13T03:13:36.243Z,20.90
2022-12-13T03:15:53.565Z,20.48
2022-12-13T03:18:10.526Z,21.85
2022-12-13T03:20:27.510Z,21.55
2022-12-13T03:22:44.591Z,22.85
2022-12-13T03:25:01.863Z,22.10
2022-12-13T03:27:19.130Z,22.45
2022-12-13T03:29:36.249Z,23.30
2022-12-13T03:31:54.051Z,22.08
2022-12-13T03:34:11.347Z,24.00
2022-12-13T03:36:29.625Z,22.42
2022-12-13T03:38:47.530Z,21.95
2022-12-13T03:41:04.560Z,21.85
2022-12-13T03:43:22.649Z,22.30
2022-12-13T03:45:40.255Z,23.00
2022-12-13T03:47:57.615Z,21.60
2022-12-13T03:50:27.024Z,21.85
2022-12-13T03:52:44.293Z,21.13
2022-12-13T03:55:01.285Z,21.02
2022-12-13T03:57:18.607Z,21.27
2022-12-13T03:59:35.550Z,21.55
2022-12-13T04:01:54.011Z,20.35
2022-12-13T04:04:12.101Z,21.58
2022-12-13T04:06:33.022Z,20.48
2022-12-13T04:08:50.966Z,20.25
2022-12-13T04:11:08.250Z,22.58
2022-12-13T04:13:26.245Z,21.15
2022-12-13T04:15:43.608Z,19.48
2022-12-13T04:18:00.730Z,21.10
2022-12-13T04:20:17.801Z,21.70
2022-12-13T04:22:34.896Z,21.40
2022-12-13T04:24:51.843Z,20.67
2022-12-13T04:27:09.798Z,20.50
2022-12-13T04:29:27.102Z,20.30
2022-12-13T04:31:52.082Z,20.63
2022-12-13T04:34:08.968Z,21.13
2022-12-13T04:36:31.703Z,20.15
2022-12-13T04:41:07.058Z,20.70
2022-12-13T04:43:25.641Z,19.33
2022-12-13T04:45:43.041Z,18.75
2022-12-13T04:48:00.144Z,19.55
2022-12-13T04:50:17.546Z,18.05
2022-12-13T04:52:34.789Z,19.25
2022-12-13T04:54:55.640Z,19.63
2022-12-13T04:57:12.955Z,20.35
2022-12-13T04:59:29.893Z,19.83
2022-12-13T05:01:46.951Z,18.92
2022-12-13T05:04:03.984Z,19.77
2022-12-13T05:06:26.941Z,20.00
2022-12-13T05:08:45.068Z,19.60
2022-12-13T05:11:02.107Z,20.30
2022-12-13T05:13:19.403Z,18.50
2022-12-13T05:15:36.684Z,20.17
2022-12-13T05:17:53.907Z,20.08
2022-12-13T05:20:10.856Z,18.52
2022-12-13T05:22:27.794Z,19.52
2022-12-13T05:24:45.089Z,19.02
2022-12-13T05:27:02.156Z,19.60
2022-12-13T05:29:39.359Z,19.50
2022-12-13T05:31:56.484Z,21.02
2022-12-13T05:34:13.793Z,19.65
2022-12-13T05:36:30.794Z,20.40
2022-12-13T05:38:48.034Z,19.58
2022-12-13T05:41:05.406Z,20.33
2022-12-13T05:43:22.697Z,20.02
2022-12-13T05:45:39.724Z,18.15
2022-12-13T05:47:56.834Z,18.85
2022-12-13T05:50:14.315Z,18.75
2022-12-13T05:52:31.429Z,19.70
2022-12-13T05:54:48.493Z,19.23
2022-12-13T05:57:06.743Z,19.48
2022-12-13T05:59:24.020Z,18.83
2022-12-13T06:01:44.015Z,20.10
2022-12-13T06:04:02.254Z,18.92
2022-12-13T06:06:19.501Z,19.17
2022-12-13T06:08:36.490Z,19.63
2022-12-13T06:10:53.952Z,20.52
2022-12-13T06:13:31.692Z,19.20
2022-12-13T06:15:49.543Z,21.30
2022-12-13T06:18:06.849Z,23.23
2022-12-13T06:20:24.820Z,20.50
2022-12-13T06:22:42.897Z,19.98
2022-12-13T06:24:59.893Z,20.77
2022-12-13T06:27:16.985Z,19.98
2022-12-13T06:29:33.907Z,20.67
2022-12-13T06:31:50.779Z,19.30
2022-12-13T06:34:14.756Z,20.50
2022-12-13T06:36:32.358Z,20.17
2022-12-13T06:38:49.594Z,19.55
2022-12-13T06:41:06.633Z,19.70
2022-12-13T06:43:23.676Z,18.98
2022-12-13T06:45:40.694Z,20.00
2022-12-13T06:47:57.619Z,19.60
2022-12-13T06:50:14.930Z,20.60
2022-12-13T06:52:32.140Z,20.17
2022-12-13T06:54:49.419Z,19.48
2022-12-13T06:57:06.483Z,19.13
2022-12-13T06:59:23.511Z,20.27
2022-12-13T07:01:40.588Z,20.48
2022-12-13T07:03:57.682Z,20.92
2022-12-13T07:06:14.623Z,19.08
2022-12-13T07:08:31.635Z,20.45
2022-12-13T07:10:48.677Z,19.08
2022-12-13T07:13:07.110Z,18.58
2022-12-13T07:15:24.096Z,18.85
2022-12-13T07:17:41.081Z,18.60
2022-12-13T07:19:58.385Z,19.63
2022-12-13T07:22:18.317Z,20.02
2022-12-13T07:24:35.339Z,18.88
2022-12-13T07:26:52.320Z,18.90
2022-12-13T07:29:09.387Z,19.17
2022-12-13T07:31:28.267Z,19.77
2022-12-13T07:33:46.382Z,18.35
2022-12-13T07:36:03.373Z,19.40
2022-12-13T07:38:20.403Z,18.17
2022-12-13T07:40:37.418Z,17.77
2022-12-13T07:42:55.436Z,19.33
2022-12-13T07:45:14.756Z,18.52
2022-12-13T07:47:31.701Z,18.77
2022-12-13T07:49:48.683Z,18.40
2022-12-13T07:52:05.522Z,19.65
2022-12-13T07:54:22.420Z,20.80
2022-12-13T07:56:40.426Z,19.45
2022-12-13T07:58:57.486Z,20.08
2022-12-13T08:01:14.360Z,20.52
2022-12-13T08:03:31.227Z,18.65
2022-12-13T08:05:48.701Z,19.00
2022-12-13T08:08:05.710Z,18.98
2022-12-13T08:10:22.768Z,18.55
2022-12-13T08:12:39.983Z,20.65
2022-12-13T08:14:56.909Z,18.90
2022-12-13T08:17:14.213Z,18.27
2022-12-13T08:19:31.446Z,19.40
2022-12-13T08:21:57.921Z,18.27
2022-12-13T08:24:16.026Z,18.65
2022-12-13T08:26:33.392Z,19.02
2022-12-13T08:28:50.755Z,19.73
2022-12-13T08:31:08.033Z,18.38
2022-12-13T08:33:25.282Z,19.70
2022-12-13T08:35:42.355Z,19.20
2022-12-13T08:37:59.457Z,18.50
2022-12-13T08:40:18.350Z,19.50
2022-12-13T08:42:35.652Z,20.02
2022-12-13T08:44:53.425Z,19.63
2022-12-13T08:47:10.376Z,18.77
2022-12-13T08:49:27.414Z,19.20
2022-12-13T08:51:44.273Z,19.92
2022-12-13T08:54:10.442Z,21.45
2022-12-13T08:56:28.632Z,19.80
2022-12-13T08:58:45.726Z,18.80
2022-12-13T09:01:02.753Z,19.15
2022-12-13T09:03:19.910Z,18.40
2022-12-13T09:05:37.422Z,18.92
2022-12-13T09:07:54.484Z,17.98
2022-12-13T09:10:26.299Z,19.45
2022-12-13T09:12:44.529Z,18.95
2022-12-13T09:15:02.108Z,17.88
2022-12-13T09:17:24.171Z,18.75
2022-12-13T09:19:42.201Z,20.02
2022-12-13T09:22:02.478Z,19.80
2022-12-13T09:24:24.757Z,18.88
2022-12-13T09:26:42.237Z,17.17
2022-12-13T09:28:59.303Z,19.23
2022-12-13T09:31:28.237Z,19.27
2022-12-13T09:33:46.251Z,18.92
2022-12-13T09:36:03.294Z,18.83
2022-12-13T09:38:20.351Z,18.77
2022-12-13T09:40:38.256Z,17.52
2022-12-13T09:43:12.812Z,18.98
2022-12-13T09:45:32.370Z,18.98
2022-12-13T09:47:49.334Z,18.45
2022-12-13T09:50:06.673Z,20.25
2022-12-13T09:52:24.852Z,18.60
2022-12-13T09:54:48.369Z,20.83
2022-12-13T09:57:06.480Z,20.15
2022-12-13T09:59:23.803Z,22.33
2022-12-13T10:01:40.954Z,21.52
2022-12-13T10:03:58.082Z,19.48
2022-12-13T10:06:15.091Z,18.73
2022-12-13T10:08:40.619Z,18.80
2022-12-13T10:10:57.556Z,20.90
2022-12-13T10:13:14.609Z,19.17
2022-12-13T10:15:31.668Z,18.42
2022-12-13T10:17:54.938Z,20.00
2022-12-13T10:20:12.731Z,20.08
2022-12-13T10:22:30.611Z,18.50
2022-12-13T10:24:47.603Z,19.55
2022-12-13T10:27:04.880Z,20.70
2022-12-13T10:29:22.200Z,28.83
2022-12-13T10:31:40.110Z,22.58
2022-12-13T10:33:57.437Z,18.98
2022-12-13T10:36:14.687Z,19.33
2022-12-13T10:41:06.338Z,17.70
2022-12-13T10:43:23.921Z,18.25
2022-12-13T10:45:41.229Z,18.20
2022-12-13T10:48:03.823Z,18.02
2022-12-13T10:50:21.693Z,19.00
2022-12-13T10:52:43.096Z,18.13
2022-12-13T10:55:01.391Z,18.15
2022-12-13T10:57:20.612Z,18.38
2022-12-13T10:59:37.652Z,18.85
2022-12-13T11:01:54.669Z,19.48
2022-12-13T11:04:11.751Z,17.70
2022-12-13T11:06:28.703Z,19.13
2022-12-13T11:08:45.982Z,18.25
2022-12-13T11:11:03.051Z,19.10
2022-12-13T11:13:20.316Z,21.73
2022-12-13T11:15:37.327Z,17.92
2022-12-13T11:17:54.680Z,19.10
2022-12-13T11:20:12.959Z,19.13
2022-12-13T11:22:29.955Z,17.83
2022-12-13T11:24:47.203Z,18.27
2022-12-13T11:27:04.137Z,18.48
2022-12-13T11:29:21.405Z,17.90
2022-12-13T11:31:40.587Z,16.88
2022-12-13T11:33:57.642Z,17.17
2022-12-13T11:36:14.720Z,17.92
2022-12-13T11:38:34.645Z,16.80
2022-12-13T11:40:51.655Z,17.13
2022-12-13T11:43:08.688Z,16.88
2022-12-13T11:45:26.765Z,18.27
2022-12-13T11:47:43.833Z,17.33
2022-12-13T11:50:00.727Z,16.45
2022-12-13T11:52:18.590Z,17.00
2022-12-13T11:54:35.913Z,17.27
2022-12-13T11:57:00.456Z,17.65
2022-12-13T11:59:25.865Z,17.83
2022-12-13T12:01:45.233Z,16.05
2022-12-13T12:04:02.405Z,16.98
2022-12-13T12:06:20.806Z,16.83
2022-12-13T12:08:39.146Z,16.13
2022-12-13T12:10:56.124Z,16.75
2022-12-13T12:13:18.537Z,16.88
2022-12-13T12:15:41.855Z,16.98
2022-12-13T12:20:23.840Z,15.52
2022-12-13T12:22:41.484Z,16.00
2022-12-13T12:24:58.422Z,15.38
2022-12-13T12:27:22.705Z,15.32
2022-12-13T12:29:40.337Z,14.68
2022-12-13T12:31:57.597Z,15.10
2022-12-13T12:34:14.550Z,14.23
2022-12-13T12:36:31.768Z,14.40
2022-12-13T12:38:49.793Z,13.75
2022-12-13T12:41:16.064Z,14.02
2022-12-13T12:43:34.520Z,15.55
2022-12-13T12:45:56.897Z,14.75
2022-12-13T12:48:51.998Z,14.93
2022-12-13T12:50:51.429Z,14.20
2022-12-13T12:53:08.475Z,13.27
2022-12-13T12:55:27.428Z,14.57
2022-12-13T12:57:45.369Z,14.63
2022-12-13T13:00:03.446Z,14.18
2022-12-13T13:02:20.763Z,13.88
2022-12-13T13:04:37.758Z,13.68
2022-12-13T13:06:54.670Z,13.75
2022-12-13T13:09:24.562Z,13.68
2022-12-13T13:11:43.159Z,13.77
2022-12-13T13:14:01.952Z,13.23
2022-12-13T13:16:19.525Z,13.75
2022-12-13T13:18:36.858Z,13.45
2022-12-13T13:20:53.784Z,13.38
2022-12-13T13:23:38.820Z,13.95
2022-12-13T13:26:16.103Z,13.98
2022-12-13T13:28:26.298Z,14.10
2022-12-13T13:30:43.624Z,14.60
2022-12-13T13:33:00.723Z,14.48
2022-12-13T13:35:17.995Z,17.45
2022-12-13T13:37:34.999Z,17.63
2022-12-13T13:39:52.061Z,25.23
2022-12-13T13:42:09.059Z,18.17
2022-12-13T13:44:28.730Z,18.00
2022-12-13T13:46:46.273Z,16.23
2022-12-13T13:49:03.620Z,14.80
2022-12-13T13:51:20.595Z,15.05
2022-12-13T13:53:37.524Z,15.38
2022-12-13T13:55:57.176Z,13.82
2022-12-13T13:58:21.635Z,13.80
2022-12-13T14:00:39.179Z,14.07
2022-12-13T14:02:57.563Z,14.45
2022-12-13T14:05:14.877Z,15.05
2022-12-13T14:07:32.139Z,14.57
2022-12-13T14:09:49.508Z,14.85
2022-12-13T14:12:06.501Z,14.07
2022-12-13T14:14:23.478Z,14.77
2022-12-13T14:16:40.834Z,13.50
2022-12-13T14:18:57.894Z,13.70
2022-12-13T14:21:14.939Z,14.38
2022-12-13T14:23:31.994Z,14.55
2022-12-13T14:25:52.054Z,14.68
2022-12-13T14:28:09.702Z,14.77
2022-12-13T14:30:28.357Z,15.32
2022-12-13T14:32:46.212Z,15.27
2022-12-13T14:35:26.249Z,15.70
2022-12-13T14:37:40.637Z,14.60
2022-12-13T14:39:58.053Z,14.65
2022-12-13T14:42:15.168Z,15.00
2022-12-13T14:44:32.875Z,15.05
2022-12-13T14:46:49.920Z,14.68
2022-12-13T14:49:07.970Z,14.88
2022-12-13T14:51:24.977Z,16.17
2022-12-13T14:53:41.863Z,15.45
2022-12-13T14:56:00.138Z,15.80
2022-12-13T14:58:17.106Z,16.55
2022-12-13T15:00:34.761Z,15.90
2022-12-13T15:02:51.854Z,15.60
2022-12-13T15:05:09.095Z,16.45
2022-12-13T15:07:26.149Z,16.65
2022-12-13T15:09:43.073Z,15.73
2022-12-13T15:12:15.249Z,15.32
2022-12-13T15:14:37.284Z,14.93
2022-12-13T15:16:54.256Z,15.40
2022-12-13T15:19:11.327Z,15.55
2022-12-13T15:21:28.674Z,15.25
2022-12-13T15:23:48.712Z,15.43
2022-12-13T15:26:06.536Z,15.52
2022-12-13T15:28:24.901Z,15.65
2022-12-13T15:30:42.499Z,16.00
2022-12-13T15:32:59.672Z,15.20
2022-12-13T15:35:16.871Z,16.20
2022-12-13T15:37:34.342Z,15.88
2022-12-13T15:39:51.756Z,15.18
2022-12-13T15:42:09.108Z,15.32
2022-12-13T15:44:26.408Z,15.95
2022-12-13T15:46:43.772Z,15.50
2022-12-13T15:49:01.140Z,15.38
2022-12-13T15:51:29.441Z,16.67
2022-12-13T15:53:47.699Z,17.83
2022-12-13T15:56:09.567Z,17.33
2022-12-13T15:58:26.878Z,16.33
2022-12-13T16:00:45.047Z,16.15
2022-12-13T16:03:08.544Z,16.05
2022-12-13T16:05:26.782Z,15.77
2022-12-13T16:07:43.874Z,16.00
2022-12-13T16:10:00.928Z,15.50
2022-12-13T16:12:18.890Z,15.60
2022-12-13T16:14:36.281Z,15.35
2022-12-13T16:16:53.327Z,15.90
2022-12-13T16:19:10.590Z,16.08
2022-12-13T16:21:27.629Z,15.48
2022-12-13T16:23:48.818Z,15.25
2022-12-13T16:26:09.134Z,16.77
2022-12-13T16:28:26.492Z,15.60
2022-12-13T16:30:43.877Z,15.82
2022-12-13T16:33:18.718Z,16.42
2022-12-13T16:35:37.833Z,15.23
2022-12-13T16:37:59.056Z,15.13
2022-12-13T16:40:16.718Z,15.52
2022-12-13T16:42:33.651Z,15.25
2022-12-13T16:44:50.800Z,15.68
2022-12-13T16:47:12.459Z,15.75
2022-12-13T16:49:35.906Z,14.80
2022-12-13T16:51:53.013Z,15.32
2022-12-13T16:54:09.990Z,15.13
2022-12-13T16:56:27.277Z,14.80
2022-12-13T16:58:49.604Z,14.25
2022-12-13T17:01:07.472Z,14.70
2022-12-13T17:03:24.842Z,14.45
2022-12-13T17:05:42.329Z,15.18
2022-12-13T17:07:59.295Z,14.55
2022-12-13T17:10:16.606Z,13.88
2022-12-13T17:12:33.877Z,15.15
2022-12-13T17:14:51.076Z,15.32
2022-12-13T17:17:12.991Z,15.30
2022-12-13T17:19:34.489Z,14.50
2022-12-13T17:21:51.558Z,14.80
2022-12-13T17:24:08.434Z,14.65
2022-12-13T17:26:25.380Z,14.55
2022-12-13T17:28:42.706Z,15.13
2022-12-13T17:30:59.987Z,14.77
2022-12-13T17:33:17.042Z,14.18
2022-12-13T17:35:33.950Z,15.60
2022-12-13T17:37:51.861Z,15.13
2022-12-13T17:40:08.877Z,15.43
2022-12-13T17:42:25.940Z,14.63
2022-12-13T17:44:42.961Z,14.55
2022-12-13T17:46:59.994Z,15.43
2022-12-13T17:49:18.329Z,14.65
2022-12-13T17:51:35.257Z,14.57
2022-12-13T17:53:52.203Z,14.82
2022-12-13T17:56:09.146Z,15.48
2022-12-13T17:58:26.556Z,14.20
2022-12-13T18:00:43.873Z,14.60
2022-12-13T18:03:00.804Z,15.48
2022-12-13T18:05:18.292Z,17.58
2022-12-13T18:07:36.302Z,16.85
2022-12-13T18:09:53.563Z,17.42
2022-12-13T18:12:10.473Z,16.20
2022-12-13T18:14:28.306Z,16.60
2022-12-13T18:16:45.349Z,16.35
2022-12-13T18:19:02.328Z,16.58
2022-12-13T18:21:19.366Z,15.30
2022-12-13T18:23:36.353Z,15.85
2022-12-13T18:25:54.389Z,15.63
2022-12-13T18:28:11.632Z,15.00
2022-12-13T18:30:29.920Z,14.70
2022-12-13T18:32:46.843Z,14.45
2022-12-13T18:35:03.742Z,15.80
2022-12-13T18:37:20.668Z,15.00
2022-12-13T18:39:37.652Z,15.13
2022-12-13T18:41:54.695Z,14.18
2022-12-13T18:44:11.676Z,16.52
2022-12-13T18:46:28.707Z,15.30
2022-12-13T18:48:45.707Z,15.52
2022-12-13T18:51:02.905Z,14.60
2022-12-13T18:53:19.908Z,14.10
2022-12-13T18:55:36.937Z,15.60
2022-12-13T18:57:54.142Z,15.68
2022-12-13T19:00:11.065Z,14.13
2022-12-13T19:02:34.060Z,14.57
2022-12-13T19:04:55.293Z,14.63
2022-12-13T19:07:12.979Z,15.85
2022-12-13T19:09:30.306Z,14.70
2022-12-13T19:11:48.168Z,14.50
2022-12-13T19:14:05.167Z,15.13
2022-12-13T19:16:22.265Z,16.00
2022-12-13T19:18:39.580Z,15.40
2022-12-13T19:20:56.564Z,15.15
2022-12-13T19:23:14.401Z,14.70
2022-12-13T19:25:31.399Z,15.80
2022-12-13T19:27:48.677Z,14.88
2022-12-13T19:30:05.735Z,15.43
2022-12-13T19:32:22.946Z,15.52
2022-12-13T19:34:40.251Z,15.35
2022-12-13T19:37:00.318Z,15.18
2022-12-13T19:39:21.616Z,15.32
2022-12-13T19:41:39.518Z,13.65
2022-12-13T19:43:56.430Z,14.95
2022-12-13T19:46:13.571Z,14.75
2022-12-13T19:48:31.225Z,15.07
2022-12-13T19:50:48.137Z,14.23
2022-12-13T19:53:06.474Z,14.70
2022-12-13T19:55:23.427Z,14.57
2022-12-13T19:57:40.348Z,14.57
2022-12-13T19:59:57.436Z,14.95
2022-12-13T20:02:14.756Z,14.93
2022-12-13T20:04:32.053Z,15.10
2022-12-13T20:06:49.129Z,14.73
2022-12-13T20:09:08.480Z,13.77
2022-12-13T20:11:25.514Z,14.20
2022-12-13T20:13:42.652Z,15.27
2022-12-13T20:15:59.620Z,14.38
2022-12-13T20:18:16.708Z,14.05
2022-12-13T20:21:02.429Z,14.07
2022-12-13T20:23:10.968Z,13.82
2022-12-13T20:25:28.251Z,15.52
2022-12-13T20:27:45.238Z,15.35
2022-12-13T20:30:03.494Z,14.93
2022-12-13T20:32:21.711Z,13.77
2022-12-13T20:34:38.946Z,14.73
2022-12-13T20:36:55.882Z,14.15
2022-12-13T20:39:13.759Z,14.73
2022-12-13T20:41:30.713Z,13.52
2022-12-13T20:43:48.309Z,14.43
2022-12-13T20:46:05.782Z,14.38
2022-12-13T20:48:22.722Z,14.43
2022-12-13T20:50:39.653Z,14.48
2022-12-13T20:52:56.576Z,14.57
2022-12-13T20:55:13.508Z,14.95
2022-12-13T20:57:30.541Z,14.00
2022-12-13T20:59:47.691Z,14.20
2022-12-13T21:02:04.832Z,14.65
2022-12-13T21:04:21.844Z,13.73
2022-12-13T21:06:38.833Z,13.93
2022-12-13T21:08:56.205Z,14.00
2022-12-13T21:11:14.372Z,14.20
2022-12-13T21:13:31.584Z,14.80
2022-12-13T21:15:48.830Z,14.50
2022-12-13T21:18:05.856Z,14.32
2022-12-13T21:20:22.910Z,14.15
2022-12-13T21:22:39.951Z,14.30
2022-12-13T21:24:57.251Z,13.23
2022-12-13T21:27:14.320Z,14.32
2022-12-13T21:29:31.290Z,14.07
2022-12-13T21:31:49.399Z,13.80
2022-12-13T21:34:07.478Z,13.48
2022-12-13T21:36:25.541Z,13.95
2022-12-13T21:38:42.560Z,13.27
2022-12-13T21:40:59.831Z,13.65
2022-12-13T21:43:16.855Z,13.45
2022-12-13T21:45:34.157Z,14.10
2022-12-13T21:47:51.196Z,14.13
2022-12-13T21:50:08.155Z,13.55
2022-12-13T21:52:25.069Z,13.32
2022-12-13T21:54:42.120Z,13.93
2022-12-13T21:56:59.094Z,13.77
2022-12-13T21:59:19.377Z,13.48
2022-12-13T22:01:36.372Z,13.68
2022-12-13T22:03:53.307Z,12.82
2022-12-13T22:06:10.555Z,13.73
2022-12-13T22:08:28.928Z,14.02
2022-12-13T22:10:46.469Z,14.57
2022-12-13T22:13:03.426Z,13.05
2022-12-13T22:15:20.394Z,13.15
2022-12-13T22:17:37.289Z,13.70
2022-12-13T22:19:54.372Z,13.07
2022-12-13T22:22:11.376Z,12.80
2022-12-13T22:24:28.386Z,13.73
2022-12-13T22:26:45.752Z,12.98
2022-12-13T22:29:02.777Z,13.63
2022-12-13T22:31:19.966Z,13.27
2022-12-13T22:33:36.973Z,13.52
2022-12-13T22:35:53.952Z,12.82
2022-12-13T22:38:10.892Z,13.48
2022-12-13T22:40:27.941Z,13.38
2022-12-13T22:42:48.434Z,13.23
2022-12-13T22:45:05.626Z,14.38
2022-12-13T22:47:24.001Z,13.38
2022-12-13T22:49:41.097Z,12.50
2022-12-13T22:51:58.033Z,13.65
2022-12-13T22:54:14.981Z,13.02
2022-12-13T22:56:32.306Z,12.85
2022-12-13T22:58:49.381Z,13.05
2022-12-13T23:01:06.842Z,13.20
2022-12-13T23:03:23.943Z,13.48
2022-12-13T23:05:40.937Z,13.20
2022-12-13T23:07:58.336Z,12.75
2022-12-13T23:10:15.634Z,12.98
2022-12-13T23:12:32.716Z,12.80
2022-12-13T23:14:51.233Z,12.10
2022-12-13T23:17:09.383Z,12.95
2022-12-13T23:19:49.940Z,12.45
2022-12-13T23:22:03.332Z,12.52
2022-12-13T23:24:21.467Z,13.65
2022-12-13T23:26:38.938Z,12.55
2022-12-13T23:28:56.440Z,12.82
2022-12-13T23:31:13.522Z,12.35
2022-12-13T23:33:30.622Z,13.15
2022-12-13T23:35:48.102Z,12.70
2022-12-13T23:38:05.166Z,12.90
2022-12-13T23:40:22.506Z,12.50
2022-12-13T23:42:39.512Z,11.95
2022-12-13T23:44:57.012Z,12.45
2022-12-13T23:47:14.136Z,12.43
2022-12-13T23:49:32.160Z,12.25
2022-12-13T23:51:49.162Z,11.95
2022-12-13T23:54:06.166Z,12.77
2022-12-13T23:56:23.159Z,12.55
2022-12-13T23:58:40.298Z,12.75
